sensor_id;sensor_type;location;lat;lon;timestamp;P1;durP1;ratioP1;P2;durP2;ratioP2
85022;SDS011;75348;43.126;-2.538;2024-02-14T00:00:26;7.07;;;3.60;;
85022;SDS011;75348;43.126;-2.538;2024-02-14T00:02:53;9.32;;;3.75;;
85022;SDS011;75348;43.126;-2.538;2024-02-14T00:05:20;6.53;;;3.47;;
85022;SDS011;75348;43.126;-2.538;2024-02-14T00:07:47;7.32;;;3.33;;
85022;SDS011;75348;43.126;-2.538;2024-02-14T00:10:14;8.00;;;3.72;;
85022;SDS011;75348;43.126;-2.538;2024-02-14T00:12:41;8.50;;;4.07;;
85022;SDS011;75348;43.126;-2.538;2024-02-14T00:15:08;8.80;;;3.70;;
85022;SDS011;75348;43.126;-2.538;2024-02-14T00:17:36;5.32;;;3.60;;
85022;SDS011;75348;43.126;-2.538;2024-02-14T00:20:03;7.20;;;3.60;;
85022;SDS011;75348;43.126;-2.538;2024-02-14T00:22:31;7.80;;;4.10;;
85022;SDS011;75348;43.126;-2.538;2024-02-14T00:24:58;7.57;;;3.75;;
85022;SDS011;75348;43.126;-2.538;2024-02-14T00:27:25;7.05;;;3.85;;
85022;SDS011;75348;43.126;-2.538;2024-02-14T00:29:53;5.95;;;3.88;;
85022;SDS011;75348;43.126;-2.538;2024-02-14T00:32:21;6.57;;;3.40;;
85022;SDS011;75348;43.126;-2.538;2024-02-14T00:34:49;9.35;;;3.63;;
85022;SDS011;75348;43.126;-2.538;2024-02-14T00:37:18;5.88;;;3.35;;
85022;SDS011;75348;43.126;-2.538;2024-02-14T00:39:46;6.00;;;3.63;;
85022;SDS011;75348;43.126;-2.538;2024-02-14T00:42:16;6.03;;;3.67;;
85022;SDS011;75348;43.126;-2.538;2024-02-14T00:44:43;5.28;;;3.38;;
85022;SDS011;75348;43.126;-2.538;2024-02-14T00:47:10;6.82;;;3.55;;
85022;SDS011;75348;43.126;-2.538;2024-02-14T00:49:37;5.22;;;3.00;;
85022;SDS011;75348;43.126;-2.538;2024-02-14T00:52:05;11.07;;;3.80;;
85022;SDS011;75348;43.126;-2.538;2024-02-14T00:54:33;5.60;;;3.55;;
85022;SDS011;75348;43.126;-2.538;2024-02-14T00:57:00;9.00;;;3.60;;
85022;SDS011;75348;43.126;-2.538;2024-02-14T00:59:27;7.15;;;3.75;;
85022;SDS011;75348;43.126;-2.538;2024-02-14T01:01:54;9.88;;;3.80;;
85022;SDS011;75348;43.126;-2.538;2024-02-14T01:04:21;24.02;;;10.13;;
85022;SDS011;75348;43.126;-2.538;2024-02-14T01:06:48;14.00;;;5.65;;
85022;SDS011;75348;43.126;-2.538;2024-02-14T01:09:16;10.50;;;5.05;;
85022;SDS011;75348;43.126;-2.538;2024-02-14T01:11:44;15.32;;;6.20;;
85022;SDS011;75348;43.126;-2.538;2024-02-14T01:14:11;19.90;;;8.80;;
85022;SDS011;75348;43.126;-2.538;2024-02-14T01:16:43;14.40;;;6.68;;
85022;SDS011;75348;43.126;-2.538;2024-02-14T01:19:11;16.92;;;7.30;;
85022;SDS011;75348;43.126;-2.538;2024-02-14T01:21:38;11.20;;;5.68;;
85022;SDS011;75348;43.126;-2.538;2024-02-14T01:24:06;14.20;;;6.50;;
85022;SDS011;75348;43.126;-2.538;2024-02-14T01:26:35;14.73;;;7.00;;
85022;SDS011;75348;43.126;-2.538;2024-02-14T01:29:02;13.70;;;5.97;;
85022;SDS011;75348;43.126;-2.538;2024-02-14T01:31:35;36.83;;;15.10;;
85022;SDS011;75348;43.126;-2.538;2024-02-14T01:34:02;29.83;;;10.63;;
85022;SDS011;75348;43.126;-2.538;2024-02-14T01:36:29;42.65;;;18.02;;
85022;SDS011;75348;43.126;-2.538;2024-02-14T01:38:57;47.38;;;16.95;;
85022;SDS011;75348;43.126;-2.538;2024-02-14T01:41:24;45.17;;;17.48;;
85022;SDS011;75348;43.126;-2.538;2024-02-14T01:43:51;41.05;;;16.02;;
85022;SDS011;75348;43.126;-2.538;2024-02-14T01:46:18;24.40;;;9.23;;
85022;SDS011;75348;43.126;-2.538;2024-02-14T01:48:45;33.90;;;13.82;;
85022;SDS011;75348;43.126;-2.538;2024-02-14T01:51:13;27.02;;;11.50;;
85022;SDS011;75348;43.126;-2.538;2024-02-14T01:53:46;24.50;;;9.98;;
85022;SDS011;75348;43.126;-2.538;2024-02-14T01:56:13;18.67;;;7.95;;
85022;SDS011;75348;43.126;-2.538;2024-02-14T01:58:41;17.17;;;7.28;;
85022;SDS011;75348;43.126;-2.538;2024-02-14T02:01:09;12.85;;;6.65;;
85022;SDS011;75348;43.126;-2.538;2024-02-14T02:03:37;16.05;;;6.57;;
85022;SDS011;75348;43.126;-2.538;2024-02-14T02:06:05;12.27;;;5.40;;
85022;SDS011;75348;43.126;-2.538;2024-02-14T02:08:33;12.25;;;5.32;;
85022;SDS011;75348;43.126;-2.538;2024-02-14T02:11:00;10.07;;;4.97;;
85022;SDS011;75348;43.126;-2.538;2024-02-14T02:13:27;12.27;;;5.10;;
85022;SDS011;75348;43.126;-2.538;2024-02-14T02:15:54;13.35;;;5.63;;
85022;SDS011;75348;43.126;-2.538;2024-02-14T02:18:21;10.85;;;4.80;;
85022;SDS011;75348;43.126;-2.538;2024-02-14T02:20:48;14.25;;;5.47;;
85022;SDS011;75348;43.126;-2.538;2024-02-14T02:23:16;12.57;;;5.00;;
85022;SDS011;75348;43.126;-2.538;2024-02-14T02:25:43;9.98;;;4.88;;
85022;SDS011;75348;43.126;-2.538;2024-02-14T02:28:10;88.18;;;35.63;;
85022;SDS011;75348;43.126;-2.538;2024-02-14T02:30:37;150.77;;;62.05;;
85022;SDS011;75348;43.126;-2.538;2024-02-14T02:33:05;108.53;;;41.25;;
85022;SDS011;75348;43.126;-2.538;2024-02-14T02:35:34;119.65;;;46.17;;
85022;SDS011;75348;43.126;-2.538;2024-02-14T02:38:01;85.82;;;34.45;;
85022;SDS011;75348;43.126;-2.538;2024-02-14T02:40:28;101.50;;;42.88;;
85022;SDS011;75348;43.126;-2.538;2024-02-14T02:42:55;66.00;;;25.25;;
85022;SDS011;75348;43.126;-2.538;2024-02-14T02:45:22;56.63;;;22.98;;
85022;SDS011;75348;43.126;-2.538;2024-02-14T02:47:49;48.63;;;18.55;;
85022;SDS011;75348;43.126;-2.538;2024-02-14T02:50:19;50.10;;;19.85;;
85022;SDS011;75348;43.126;-2.538;2024-02-14T02:52:48;39.30;;;17.58;;
85022;SDS011;75348;43.126;-2.538;2024-02-14T02:55:15;23.73;;;10.18;;
85022;SDS011;75348;43.126;-2.538;2024-02-14T02:57:45;11.48;;;6.10;;
85022;SDS011;75348;43.126;-2.538;2024-02-14T03:00:12;25.92;;;12.50;;
85022;SDS011;75348;43.126;-2.538;2024-02-14T03:02:40;14.98;;;6.45;;
85022;SDS011;75348;43.126;-2.538;2024-02-14T03:05:13;21.02;;;8.73;;
85022;SDS011;75348;43.126;-2.538;2024-02-14T03:07:45;12.75;;;6.38;;
85022;SDS011;75348;43.126;-2.538;2024-02-14T03:10:14;13.23;;;7.07;;
85022;SDS011;75348;43.126;-2.538;2024-02-14T03:12:46;21.48;;;8.82;;
85022;SDS011;75348;43.126;-2.538;2024-02-14T03:15:14;16.40;;;7.05;;
85022;SDS011;75348;43.126;-2.538;2024-02-14T03:17:41;13.23;;;6.75;;
85022;SDS011;75348;43.126;-2.538;2024-02-14T03:20:11;18.55;;;7.50;;
85022;SDS011;75348;43.126;-2.538;2024-02-14T03:22:43;14.50;;;7.20;;
85022;SDS011;75348;43.126;-2.538;2024-02-14T03:25:18;20.75;;;7.07;;
85022;SDS011;75348;43.126;-2.538;2024-02-14T03:27:46;14.10;;;6.10;;
85022;SDS011;75348;43.126;-2.538;2024-02-14T03:30:18;12.48;;;5.60;;
85022;SDS011;75348;43.126;-2.538;2024-02-14T03:32:46;18.17;;;8.27;;
85022;SDS011;75348;43.126;-2.538;2024-02-14T03:35:14;16.63;;;6.78;;
85022;SDS011;75348;43.126;-2.538;2024-02-14T03:37:42;13.65;;;6.07;;
85022;SDS011;75348;43.126;-2.538;2024-02-14T03:40:10;9.70;;;4.85;;
85022;SDS011;75348;43.126;-2.538;2024-02-14T03:42:38;12.27;;;5.07;;
85022;SDS011;75348;43.126;-2.538;2024-02-14T03:45:08;11.82;;;5.10;;
85022;SDS011;75348;43.126;-2.538;2024-02-14T03:47:36;11.18;;;4.95;;
85022;SDS011;75348;43.126;-2.538;2024-02-14T03:50:07;9.48;;;4.80;;
85022;SDS011;75348;43.126;-2.538;2024-02-14T03:52:35;18.38;;;7.28;;
85022;SDS011;75348;43.126;-2.538;2024-02-14T03:55:02;11.70;;;5.43;;
85022;SDS011;75348;43.126;-2.538;2024-02-14T03:57:30;116.50;;;47.15;;
85022;SDS011;75348;43.126;-2.538;2024-02-14T03:59:58;77.90;;;29.48;;
85022;SDS011;75348;43.126;-2.538;2024-02-14T04:02:29;35.78;;;14.23;;
85022;SDS011;75348;43.126;-2.538;2024-02-14T04:04:58;14.70;;;7.90;;
85022;SDS011;75348;43.126;-2.538;2024-02-14T04:07:26;40.65;;;14.65;;
85022;SDS011;75348;43.126;-2.538;2024-02-14T04:09:53;25.08;;;9.95;;
85022;SDS011;75348;43.126;-2.538;2024-02-14T04:12:20;20.98;;;9.50;;
85022;SDS011;75348;43.126;-2.538;2024-02-14T04:14:47;16.83;;;8.32;;
85022;SDS011;75348;43.126;-2.538;2024-02-14T04:17:15;26.95;;;10.15;;
85022;SDS011;75348;43.126;-2.538;2024-02-14T04:19:42;18.25;;;6.95;;
85022;SDS011;75348;43.126;-2.538;2024-02-14T04:22:09;25.25;;;9.57;;
85022;SDS011;75348;43.126;-2.538;2024-02-14T04:24:36;17.02;;;6.65;;
85022;SDS011;75348;43.126;-2.538;2024-02-14T04:27:03;8.00;;;4.72;;
85022;SDS011;75348;43.126;-2.538;2024-02-14T04:29:31;9.10;;;4.80;;
85022;SDS011;75348;43.126;-2.538;2024-02-14T04:32:01;11.68;;;5.00;;
85022;SDS011;75348;43.126;-2.538;2024-02-14T04:34:28;8.60;;;4.85;;
85022;SDS011;75348;43.126;-2.538;2024-02-14T04:36:57;22.80;;;9.23;;
85022;SDS011;75348;43.126;-2.538;2024-02-14T04:39:24;52.67;;;21.05;;
85022;SDS011;75348;43.126;-2.538;2024-02-14T04:41:51;87.65;;;32.63;;
85022;SDS011;75348;43.126;-2.538;2024-02-14T04:44:30;87.20;;;31.60;;
85022;SDS011;75348;43.126;-2.538;2024-02-14T04:46:58;51.30;;;21.00;;
85022;SDS011;75348;43.126;-2.538;2024-02-14T04:49:26;68.03;;;27.65;;
85022;SDS011;75348;43.126;-2.538;2024-02-14T04:51:55;45.58;;;18.48;;
85022;SDS011;75348;43.126;-2.538;2024-02-14T04:54:23;40.83;;;17.10;;
85022;SDS011;75348;43.126;-2.538;2024-02-14T04:56:51;35.58;;;15.38;;
85022;SDS011;75348;43.126;-2.538;2024-02-14T04:59:23;29.60;;;11.68;;
85022;SDS011;75348;43.126;-2.538;2024-02-14T05:01:50;37.05;;;15.82;;
85022;SDS011;75348;43.126;-2.538;2024-02-14T05:04:20;22.02;;;10.32;;
85022;SDS011;75348;43.126;-2.538;2024-02-14T05:06:47;24.65;;;10.45;;
85022;SDS011;75348;43.126;-2.538;2024-02-14T05:09:16;21.90;;;9.63;;
85022;SDS011;75348;43.126;-2.538;2024-02-14T05:11:43;43.92;;;17.95;;
85022;SDS011;75348;43.126;-2.538;2024-02-14T05:14:10;27.20;;;10.18;;
85022;SDS011;75348;43.126;-2.538;2024-02-14T05:16:37;40.78;;;16.85;;
85022;SDS011;75348;43.126;-2.538;2024-02-14T05:19:04;40.13;;;15.43;;
85022;SDS011;75348;43.126;-2.538;2024-02-14T05:21:32;20.73;;;8.65;;
85022;SDS011;75348;43.126;-2.538;2024-02-14T05:23:59;24.63;;;9.73;;
85022;SDS011;75348;43.126;-2.538;2024-02-14T05:26:26;26.08;;;9.93;;
85022;SDS011;75348;43.126;-2.538;2024-02-14T05:28:53;25.35;;;9.95;;
85022;SDS011;75348;43.126;-2.538;2024-02-14T05:31:20;25.88;;;10.98;;
85022;SDS011;75348;43.126;-2.538;2024-02-14T05:33:47;28.88;;;12.65;;
85022;SDS011;75348;43.126;-2.538;2024-02-14T05:36:14;26.20;;;10.63;;
85022;SDS011;75348;43.126;-2.538;2024-02-14T05:38:41;26.90;;;11.80;;
85022;SDS011;75348;43.126;-2.538;2024-02-14T05:41:08;26.40;;;10.35;;
85022;SDS011;75348;43.126;-2.538;2024-02-14T05:43:35;19.08;;;8.90;;
85022;SDS011;75348;43.126;-2.538;2024-02-14T05:46:02;20.40;;;9.27;;
85022;SDS011;75348;43.126;-2.538;2024-02-14T05:48:29;21.50;;;8.52;;
85022;SDS011;75348;43.126;-2.538;2024-02-14T05:50:56;14.23;;;6.63;;
85022;SDS011;75348;43.126;-2.538;2024-02-14T05:53:23;9.30;;;5.65;;
85022;SDS011;75348;43.126;-2.538;2024-02-14T05:55:50;10.35;;;6.43;;
85022;SDS011;75348;43.126;-2.538;2024-02-14T05:58:17;11.25;;;5.32;;
85022;SDS011;75348;43.126;-2.538;2024-02-14T06:00:45;10.20;;;4.70;;
85022;SDS011;75348;43.126;-2.538;2024-02-14T06:03:12;9.10;;;5.65;;
85022;SDS011;75348;43.126;-2.538;2024-02-14T06:05:39;7.38;;;4.40;;
85022;SDS011;75348;43.126;-2.538;2024-02-14T06:08:06;9.15;;;4.63;;
85022;SDS011;75348;43.126;-2.538;2024-02-14T06:10:34;4.95;;;3.20;;
85022;SDS011;75348;43.126;-2.538;2024-02-14T06:13:01;6.38;;;3.40;;
85022;SDS011;75348;43.126;-2.538;2024-02-14T06:15:28;3.45;;;2.60;;
85022;SDS011;75348;43.126;-2.538;2024-02-14T06:17:55;4.70;;;2.58;;
85022;SDS011;75348;43.126;-2.538;2024-02-14T06:20:24;4.32;;;2.72;;
85022;SDS011;75348;43.126;-2.538;2024-02-14T06:22:51;6.70;;;3.28;;
85022;SDS011;75348;43.126;-2.538;2024-02-14T06:25:29;5.63;;;3.20;;
85022;SDS011;75348;43.126;-2.538;2024-02-14T06:27:57;6.95;;;2.97;;
85022;SDS011;75348;43.126;-2.538;2024-02-14T06:30:24;8.32;;;3.50;;
85022;SDS011;75348;43.126;-2.538;2024-02-14T06:32:56;7.72;;;3.80;;
85022;SDS011;75348;43.126;-2.538;2024-02-14T06:35:28;5.72;;;3.60;;
85022;SDS011;75348;43.126;-2.538;2024-02-14T06:37:56;5.65;;;3.13;;
85022;SDS011;75348;43.126;-2.538;2024-02-14T06:40:30;4.95;;;3.05;;
85022;SDS011;75348;43.126;-2.538;2024-02-14T06:42:57;6.60;;;3.00;;
85022;SDS011;75348;43.126;-2.538;2024-02-14T06:45:27;6.07;;;3.85;;
85022;SDS011;75348;43.126;-2.538;2024-02-14T06:47:54;8.20;;;3.95;;
85022;SDS011;75348;43.126;-2.538;2024-02-14T06:50:22;9.90;;;5.18;;
85022;SDS011;75348;43.126;-2.538;2024-02-14T06:52:52;12.23;;;6.57;;
85022;SDS011;75348;43.126;-2.538;2024-02-14T06:55:19;9.20;;;5.10;;
85022;SDS011;75348;43.126;-2.538;2024-02-14T06:57:46;10.65;;;5.75;;
85022;SDS011;75348;43.126;-2.538;2024-02-14T07:00:13;12.63;;;5.97;;
85022;SDS011;75348;43.126;-2.538;2024-02-14T07:02:40;10.55;;;6.03;;
85022;SDS011;75348;43.126;-2.538;2024-02-14T07:05:10;10.05;;;5.93;;
85022;SDS011;75348;43.126;-2.538;2024-02-14T07:07:39;13.73;;;6.43;;
85022;SDS011;75348;43.126;-2.538;2024-02-14T07:10:08;13.85;;;6.05;;
85022;SDS011;75348;43.126;-2.538;2024-02-14T07:12:35;13.05;;;6.35;;
85022;SDS011;75348;43.126;-2.538;2024-02-14T07:15:03;13.32;;;7.75;;
85022;SDS011;75348;43.126;-2.538;2024-02-14T07:17:31;15.00;;;7.55;;
85022;SDS011;75348;43.126;-2.538;2024-02-14T07:19:58;17.00;;;6.60;;
85022;SDS011;75348;43.126;-2.538;2024-02-14T07:22:25;14.43;;;7.22;;
85022;SDS011;75348;43.126;-2.538;2024-02-14T07:24:52;65.63;;;21.55;;
85022;SDS011;75348;43.126;-2.538;2024-02-14T07:27:20;26.58;;;11.20;;
85022;SDS011;75348;43.126;-2.538;2024-02-14T07:29:47;22.55;;;8.00;;
85022;SDS011;75348;43.126;-2.538;2024-02-14T07:32:15;15.57;;;7.38;;
85022;SDS011;75348;43.126;-2.538;2024-02-14T07:34:43;16.05;;;6.75;;
85022;SDS011;75348;43.126;-2.538;2024-02-14T07:37:10;50.20;;;18.70;;
85022;SDS011;75348;43.126;-2.538;2024-02-14T07:39:37;26.27;;;12.20;;
85022;SDS011;75348;43.126;-2.538;2024-02-14T07:42:04;21.45;;;10.98;;
85022;SDS011;75348;43.126;-2.538;2024-02-14T07:44:32;39.13;;;14.32;;
85022;SDS011;75348;43.126;-2.538;2024-02-14T07:46:59;39.78;;;17.13;;
85022;SDS011;75348;43.126;-2.538;2024-02-14T07:49:30;34.38;;;11.90;;
85022;SDS011;75348;43.126;-2.538;2024-02-14T07:51:57;20.48;;;10.43;;
85022;SDS011;75348;43.126;-2.538;2024-02-14T07:54:24;22.73;;;10.02;;
85022;SDS011;75348;43.126;-2.538;2024-02-14T07:56:51;17.25;;;7.82;;
85022;SDS011;75348;43.126;-2.538;2024-02-14T07:59:18;36.28;;;15.82;;
85022;SDS011;75348;43.126;-2.538;2024-02-14T08:01:47;32.35;;;13.63;;
85022;SDS011;75348;43.126;-2.538;2024-02-14T08:04:14;22.38;;;10.82;;
85022;SDS011;75348;43.126;-2.538;2024-02-14T08:06:44;18.88;;;8.40;;
85022;SDS011;75348;43.126;-2.538;2024-02-14T08:09:13;18.95;;;8.18;;
85022;SDS011;75348;43.126;-2.538;2024-02-14T08:11:40;21.25;;;8.43;;
85022;SDS011;75348;43.126;-2.538;2024-02-14T08:14:07;46.08;;;18.52;;
85022;SDS011;75348;43.126;-2.538;2024-02-14T08:16:35;11.77;;;5.05;;
85022;SDS011;75348;43.126;-2.538;2024-02-14T08:19:02;17.20;;;6.50;;
85022;SDS011;75348;43.126;-2.538;2024-02-14T08:21:30;7.28;;;4.05;;
85022;SDS011;75348;43.126;-2.538;2024-02-14T08:23:58;11.38;;;5.55;;
85022;SDS011;75348;43.126;-2.538;2024-02-14T08:26:27;12.35;;;4.28;;
85022;SDS011;75348;43.126;-2.538;2024-02-14T08:28:55;6.03;;;2.88;;
85022;SDS011;75348;43.126;-2.538;2024-02-14T08:31:22;4.47;;;2.47;;
85022;SDS011;75348;43.126;-2.538;2024-02-14T08:33:49;3.97;;;2.40;;
85022;SDS011;75348;43.126;-2.538;2024-02-14T08:36:17;6.78;;;3.03;;
85022;SDS011;75348;43.126;-2.538;2024-02-14T08:38:46;3.08;;;2.22;;
85022;SDS011;75348;43.126;-2.538;2024-02-14T08:41:14;6.43;;;3.00;;
85022;SDS011;75348;43.126;-2.538;2024-02-14T08:43:41;3.33;;;2.22;;
85022;SDS011;75348;43.126;-2.538;2024-02-14T08:46:13;4.45;;;2.35;;
85022;SDS011;75348;43.126;-2.538;2024-02-14T08:48:40;3.28;;;2.03;;
85022;SDS011;75348;43.126;-2.538;2024-02-14T08:51:15;45.50;;;14.25;;
85022;SDS011;75348;43.126;-2.538;2024-02-14T08:53:44;13.07;;;5.05;;
85022;SDS011;75348;43.126;-2.538;2024-02-14T08:56:12;18.52;;;6.80;;
85022;SDS011;75348;43.126;-2.538;2024-02-14T08:58:40;5.32;;;1.92;;
85022;SDS011;75348;43.126;-2.538;2024-02-14T09:01:07;3.63;;;2.30;;
85022;SDS011;75348;43.126;-2.538;2024-02-14T09:03:44;5.60;;;2.60;;
85022;SDS011;75348;43.126;-2.538;2024-02-14T09:06:16;3.15;;;2.30;;
85022;SDS011;75348;43.126;-2.538;2024-02-14T09:08:47;2.95;;;1.70;;
85022;SDS011;75348;43.126;-2.538;2024-02-14T09:11:15;13.90;;;4.97;;
85022;SDS011;75348;43.126;-2.538;2024-02-14T09:13:42;2.83;;;2.00;;
85022;SDS011;75348;43.126;-2.538;2024-02-14T09:16:09;12.40;;;4.97;;
85022;SDS011;75348;43.126;-2.538;2024-02-14T09:18:37;4.78;;;2.40;;
85022;SDS011;75348;43.126;-2.538;2024-02-14T09:21:05;5.60;;;2.30;;
85022;SDS011;75348;43.126;-2.538;2024-02-14T09:23:33;5.10;;;2.67;;
85022;SDS011;75348;43.126;-2.538;2024-02-14T09:26:00;6.78;;;2.75;;
85022;SDS011;75348;43.126;-2.538;2024-02-14T09:28:28;4.05;;;2.15;;
85022;SDS011;75348;43.126;-2.538;2024-02-14T09:30:56;7.00;;;3.55;;
85022;SDS011;75348;43.126;-2.538;2024-02-14T09:33:23;2.60;;;1.98;;
85022;SDS011;75348;43.126;-2.538;2024-02-14T09:35:50;10.25;;;3.95;;
85022;SDS011;75348;43.126;-2.538;2024-02-14T09:38:19;5.15;;;2.47;;
85022;SDS011;75348;43.126;-2.538;2024-02-14T09:40:46;11.52;;;4.25;;
85022;SDS011;75348;43.126;-2.538;2024-02-14T09:43:25;17.73;;;6.35;;
85022;SDS011;75348;43.126;-2.538;2024-02-14T09:46:01;8.02;;;2.67;;
85022;SDS011;75348;43.126;-2.538;2024-02-14T09:48:30;7.28;;;3.13;;
85022;SDS011;75348;43.126;-2.538;2024-02-14T09:50:57;8.13;;;2.50;;
85022;SDS011;75348;43.126;-2.538;2024-02-14T09:53:25;13.65;;;3.17;;
85022;SDS011;75348;43.126;-2.538;2024-02-14T09:55:55;9.68;;;2.83;;
85022;SDS011;75348;43.126;-2.538;2024-02-14T09:58:22;17.23;;;3.42;;
85022;SDS011;75348;43.126;-2.538;2024-02-14T10:00:59;9.38;;;3.00;;
85022;SDS011;75348;43.126;-2.538;2024-02-14T10:03:26;21.77;;;4.30;;
85022;SDS011;75348;43.126;-2.538;2024-02-14T10:05:54;10.27;;;3.08;;
85022;SDS011;75348;43.126;-2.538;2024-02-14T10:08:21;8.05;;;2.65;;
85022;SDS011;75348;43.126;-2.538;2024-02-14T10:10:49;17.20;;;3.38;;
85022;SDS011;75348;43.126;-2.538;2024-02-14T10:13:19;19.73;;;3.58;;
85022;SDS011;75348;43.126;-2.538;2024-02-14T10:15:46;7.68;;;2.65;;
85022;SDS011;75348;43.126;-2.538;2024-02-14T10:18:14;10.43;;;3.53;;
85022;SDS011;75348;43.126;-2.538;2024-02-14T10:20:52;4.40;;;2.10;;
85022;SDS011;75348;43.126;-2.538;2024-02-14T10:23:23;4.03;;;2.10;;
85022;SDS011;75348;43.126;-2.538;2024-02-14T10:25:50;2.83;;;1.80;;
85022;SDS011;75348;43.126;-2.538;2024-02-14T10:28:22;8.93;;;3.72;;
85022;SDS011;75348;43.126;-2.538;2024-02-14T10:31:01;7.97;;;3.72;;
85022;SDS011;75348;43.126;-2.538;2024-02-14T10:33:28;12.88;;;4.68;;
85022;SDS011;75348;43.126;-2.538;2024-02-14T10:35:58;2.22;;;1.80;;
85022;SDS011;75348;43.126;-2.538;2024-02-14T10:38:32;13.32;;;5.30;;
85022;SDS011;75348;43.126;-2.538;2024-02-14T10:41:00;11.65;;;5.15;;
85022;SDS011;75348;43.126;-2.538;2024-02-14T10:43:28;7.13;;;3.42;;
85022;SDS011;75348;43.126;-2.538;2024-02-14T10:45:55;5.63;;;2.20;;
85022;SDS011;75348;43.126;-2.538;2024-02-14T10:55:49;10.52;;;4.07;;
85022;SDS011;75348;43.126;-2.538;2024-02-14T10:58:18;5.53;;;2.95;;
85022;SDS011;75348;43.126;-2.538;2024-02-14T11:00:45;5.82;;;3.15;;
85022;SDS011;75348;43.126;-2.538;2024-02-14T11:03:14;9.05;;;3.00;;
85022;SDS011;75348;43.126;-2.538;2024-02-14T11:05:45;6.38;;;2.28;;
85022;SDS011;75348;43.126;-2.538;2024-02-14T11:08:15;20.15;;;6.25;;
85022;SDS011;75348;43.126;-2.538;2024-02-14T11:10:52;8.10;;;3.22;;
85022;SDS011;75348;43.126;-2.538;2024-02-14T11:13:21;12.48;;;3.90;;
85022;SDS011;75348;43.126;-2.538;2024-02-14T11:15:54;5.82;;;3.00;;
85022;SDS011;75348;43.126;-2.538;2024-02-14T11:18:28;4.97;;;2.50;;
85022;SDS011;75348;43.126;-2.538;2024-02-14T11:21:03;6.15;;;2.60;;
85022;SDS011;75348;43.126;-2.538;2024-02-14T11:23:31;4.38;;;2.80;;
85022;SDS011;75348;43.126;-2.538;2024-02-14T11:26:05;4.50;;;2.50;;
85022;SDS011;75348;43.126;-2.538;2024-02-14T11:28:36;5.80;;;2.88;;
85022;SDS011;75348;43.126;-2.538;2024-02-14T11:31:06;5.95;;;2.38;;
85022;SDS011;75348;43.126;-2.538;2024-02-14T11:33:34;3.72;;;2.00;;
85022;SDS011;75348;43.126;-2.538;2024-02-14T11:36:07;3.53;;;2.22;;
85022;SDS011;75348;43.126;-2.538;2024-02-14T11:38:39;7.60;;;2.92;;
85022;SDS011;75348;43.126;-2.538;2024-02-14T11:41:07;4.90;;;2.40;;
85022;SDS011;75348;43.126;-2.538;2024-02-14T11:43:36;8.45;;;3.13;;
85022;SDS011;75348;43.126;-2.538;2024-02-14T11:46:06;6.45;;;2.40;;
85022;SDS011;75348;43.126;-2.538;2024-02-14T11:48:33;6.82;;;2.33;;
85022;SDS011;75348;43.126;-2.538;2024-02-14T11:51:01;6.90;;;3.35;;
85022;SDS011;75348;43.126;-2.538;2024-02-14T11:53:28;8.75;;;3.80;;
85022;SDS011;75348;43.126;-2.538;2024-02-14T11:55:56;10.75;;;3.60;;
85022;SDS011;75348;43.126;-2.538;2024-02-14T11:58:23;4.80;;;2.70;;
85022;SDS011;75348;43.126;-2.538;2024-02-14T12:00:50;6.20;;;2.58;;
85022;SDS011;75348;43.126;-2.538;2024-02-14T12:03:21;4.65;;;2.70;;
85022;SDS011;75348;43.126;-2.538;2024-02-14T12:05:49;6.70;;;3.00;;
85022;SDS011;75348;43.126;-2.538;2024-02-14T12:08:18;4.90;;;2.85;;
85022;SDS011;75348;43.126;-2.538;2024-02-14T12:10:46;5.53;;;3.40;;
85022;SDS011;75348;43.126;-2.538;2024-02-14T12:13:20;6.80;;;3.50;;
85022;SDS011;75348;43.126;-2.538;2024-02-14T12:15:48;18.45;;;6.72;;
85022;SDS011;75348;43.126;-2.538;2024-02-14T12:18:18;11.60;;;5.43;;
85022;SDS011;75348;43.126;-2.538;2024-02-14T12:28:17;5.10;;;2.28;;
85022;SDS011;75348;43.126;-2.538;2024-02-14T12:30:46;7.20;;;3.25;;
85022;SDS011;75348;43.126;-2.538;2024-02-14T12:33:16;6.07;;;2.05;;
85022;SDS011;75348;43.126;-2.538;2024-02-14T12:35:45;8.82;;;3.40;;
85022;SDS011;75348;43.126;-2.538;2024-02-14T12:38:13;10.00;;;4.38;;
85022;SDS011;75348;43.126;-2.538;2024-02-14T12:40:42;7.28;;;3.58;;
85022;SDS011;75348;43.126;-2.538;2024-02-14T12:43:14;6.03;;;2.90;;
85022;SDS011;75348;43.126;-2.538;2024-02-14T12:45:45;7.00;;;3.13;;
85022;SDS011;75348;43.126;-2.538;2024-02-14T12:48:12;5.88;;;2.63;;
85022;SDS011;75348;43.126;-2.538;2024-02-14T12:53:16;6.13;;;2.35;;
85022;SDS011;75348;43.126;-2.538;2024-02-14T12:55:43;5.78;;;2.47;;
85022;SDS011;75348;43.126;-2.538;2024-02-14T12:58:10;5.90;;;2.53;;
85022;SDS011;75348;43.126;-2.538;2024-02-14T13:00:37;3.03;;;2.20;;
85022;SDS011;75348;43.126;-2.538;2024-02-14T13:03:05;3.60;;;1.90;;
85022;SDS011;75348;43.126;-2.538;2024-02-14T13:05:32;5.47;;;2.00;;
85022;SDS011;75348;43.126;-2.538;2024-02-14T13:08:00;2.00;;;1.60;;
85022;SDS011;75348;43.126;-2.538;2024-02-14T13:10:27;12.50;;;4.28;;
85022;SDS011;75348;43.126;-2.538;2024-02-14T13:12:55;3.72;;;2.13;;
85022;SDS011;75348;43.126;-2.538;2024-02-14T13:15:26;5.43;;;2.60;;
85022;SDS011;75348;43.126;-2.538;2024-02-14T13:17:53;6.82;;;2.80;;
85022;SDS011;75348;43.126;-2.538;2024-02-14T13:20:20;8.38;;;3.20;;
85022;SDS011;75348;43.126;-2.538;2024-02-14T13:22:47;5.18;;;2.50;;
85022;SDS011;75348;43.126;-2.538;2024-02-14T13:25:15;8.63;;;3.20;;
85022;SDS011;75348;43.126;-2.538;2024-02-14T13:27:42;11.57;;;3.65;;
85022;SDS011;75348;43.126;-2.538;2024-02-14T13:30:11;11.48;;;4.28;;
85022;SDS011;75348;43.126;-2.538;2024-02-14T13:32:38;4.30;;;2.55;;
85022;SDS011;75348;43.126;-2.538;2024-02-14T13:35:06;10.77;;;3.55;;
85022;SDS011;75348;43.126;-2.538;2024-02-14T13:37:33;2.67;;;1.80;;
85022;SDS011;75348;43.126;-2.538;2024-02-14T13:40:02;6.07;;;2.50;;
85022;SDS011;75348;43.126;-2.538;2024-02-14T13:42:30;5.05;;;2.30;;
85022;SDS011;75348;43.126;-2.538;2024-02-14T13:44:57;2.78;;;1.65;;
85022;SDS011;75348;43.126;-2.538;2024-02-14T13:47:25;5.20;;;2.58;;
85022;SDS011;75348;43.126;-2.538;2024-02-14T13:49:52;3.40;;;1.70;;
85022;SDS011;75348;43.126;-2.538;2024-02-14T13:52:19;8.00;;;2.50;;
85022;SDS011;75348;43.126;-2.538;2024-02-14T13:54:47;7.55;;;3.13;;
85022;SDS011;75348;43.126;-2.538;2024-02-14T13:57:15;6.13;;;2.20;;
85022;SDS011;75348;43.126;-2.538;2024-02-14T13:59:46;2.90;;;1.90;;
85022;SDS011;75348;43.126;-2.538;2024-02-14T14:02:14;7.25;;;2.80;;
85022;SDS011;75348;43.126;-2.538;2024-02-14T14:04:41;16.08;;;5.15;;
85022;SDS011;75348;43.126;-2.538;2024-02-14T14:07:08;13.45;;;4.20;;
85022;SDS011;75348;43.126;-2.538;2024-02-14T14:09:36;9.63;;;3.65;;
85022;SDS011;75348;43.126;-2.538;2024-02-14T14:12:03;9.10;;;4.03;;
85022;SDS011;75348;43.126;-2.538;2024-02-14T14:14:31;7.43;;;2.40;;
85022;SDS011;75348;43.126;-2.538;2024-02-14T14:16:58;7.05;;;2.90;;
85022;SDS011;75348;43.126;-2.538;2024-02-14T14:19:25;6.28;;;2.55;;
85022;SDS011;75348;43.126;-2.538;2024-02-14T14:21:52;5.63;;;2.30;;
85022;SDS011;75348;43.126;-2.538;2024-02-14T14:24:19;3.38;;;1.88;;
85022;SDS011;75348;43.126;-2.538;2024-02-14T14:26:46;3.47;;;1.83;;
85022;SDS011;75348;43.126;-2.538;2024-02-14T14:29:13;6.97;;;2.53;;
85022;SDS011;75348;43.126;-2.538;2024-02-14T14:31:40;6.72;;;2.95;;
85022;SDS011;75348;43.126;-2.538;2024-02-14T14:34:07;6.15;;;2.20;;
85022;SDS011;75348;43.126;-2.538;2024-02-14T14:36:35;8.65;;;3.55;;
85022;SDS011;75348;43.126;-2.538;2024-02-14T14:39:04;5.32;;;2.50;;
85022;SDS011;75348;43.126;-2.538;2024-02-14T14:41:31;5.20;;;1.73;;
85022;SDS011;75348;43.126;-2.538;2024-02-14T14:43:58;2.60;;;1.63;;
85022;SDS011;75348;43.126;-2.538;2024-02-14T14:46:25;3.47;;;2.00;;
85022;SDS011;75348;43.126;-2.538;2024-02-14T14:48:52;4.90;;;2.50;;